Time;durP1;ratioP1;P1;durP2;ratioP2;P2;SDS_P1;SDS_P2;PMS_P1;PMS_P2;Temp;Humidity;BMP_temperature;BMP_pressure;BME280_temperature;BME280_humidity;BME280_pressure;Samples;Min_cycle;Max_cycle;Signal;HPM_P1;HPM_P2
2023/04/23 00:02:11;;;;;;;1.50;1.40;;;22.20;72.00;;;;;;5057960;28;20458;-60
2023/04/23 00:04:38;;;;;;;1.20;1.10;;;22.10;71.80;;;;;;5057463;28;22605;-59
2023/04/23 00:07:07;;;;;;;1.30;1.20;;;22.20;72.00;;;;;;5056215;28;20458;-57
2023/04/23 00:09:35;;;;;;;1.20;1.10;;;22.20;72.00;;;;;;5049980;28;20687;-58
2023/04/23 00:12:03;;;;;;;1.75;1.30;;;22.20;72.00;;;;;;5055244;28;20198;-61
2023/04/23 00:14:30;;;;;;;1.25;1.05;;;22.10;71.90;;;;;;5063971;28;20191;-57
2023/04/23 00:16:57;;;;;;;1.20;1.10;;;22.10;71.90;;;;;;5061536;28;20203;-59
2023/04/23 00:19:24;;;;;;;2.55;1.13;;;22.10;71.90;;;;;;5060147;28;20215;-58
2023/04/23 00:21:51;;;;;;;1.70;1.23;;;22.10;72.00;;;;;;5050582;28;20219;-56
2023/04/23 00:24:20;;;;;;;1.30;0.98;;;22.10;72.00;;;;;;5057623;28;20245;-59
2023/04/23 00:26:47;;;;;;;1.50;1.25;;;22.10;72.00;;;;;;5048865;28;20206;-60
2023/04/23 00:29:13;;;;;;;1.30;1.20;;;22.00;71.80;;;;;;5052366;28;20272;-60
2023/04/23 00:31:40;;;;;;;1.38;1.25;;;22.00;71.90;;;;;;5053740;28;20232;-59
2023/04/23 00:34:07;;;;;;;1.67;1.20;;;22.10;72.00;;;;;;5051292;28;20265;-57
2023/04/23 00:36:33;;;;;;;1.52;1.25;;;22.00;71.90;;;;;;5058599;28;20202;-58
2023/04/23 00:39:00;;;;;;;1.17;1.08;;;22.00;71.90;;;;;;5059322;28;20670;-61
2023/04/23 00:41:28;;;;;;;1.52;1.20;;;22.00;72.00;;;;;;5059431;28;20198;-59
2023/04/23 00:43:57;;;;;;;1.40;1.10;;;22.00;72.00;;;;;;5057190;28;20211;-58
2023/04/23 00:46:25;;;;;;;1.08;0.98;;;22.00;72.00;;;;;;5052906;28;20666;-58
2023/04/23 00:48:53;;;;;;;1.50;1.00;;;22.00;72.10;;;;;;5055163;28;20269;-58
2023/04/23 00:51:21;;;;;;;1.30;1.15;;;21.90;72.00;;;;;;5058131;28;20325;-58
2023/04/23 00:53:48;;;;;;;1.15;1.00;;;21.90;72.00;;;;;;5048733;28;20203;-56
2023/04/23 00:56:17;;;;;;;1.33;1.23;;;21.90;71.90;;;;;;5056992;28;20256;-60
2023/04/23 00:58:45;;;;;;;1.17;1.08;;;21.90;72.00;;;;;;5055372;28;20610;-58
2023/04/23 01:01:12;;;;;;;1.40;1.20;;;21.90;72.00;;;;;;5057472;28;20202;-59
2023/04/23 01:03:42;;;;;;;1.67;1.00;;;21.90;72.00;;;;;;5058290;28;20208;-61
2023/04/23 01:06:09;;;;;;;1.52;1.42;;;21.90;72.10;;;;;;5059437;28;20253;-59
2023/04/23 01:08:36;;;;;;;1.70;1.10;;;21.80;72.00;;;;;;5059347;28;20215;-60
2023/04/23 01:11:03;;;;;;;1.10;0.90;;;21.90;72.10;;;;;;5055958;28;20612;-59
2023/04/23 01:13:30;;;;;;;1.13;1.02;;;21.90;72.10;;;;;;5058583;28;20219;-59
2023/04/23 01:15:58;;;;;;;1.30;1.20;;;21.80;72.00;;;;;;5053364;28;20253;-60
2023/04/23 01:18:25;;;;;;;1.83;1.10;;;21.80;72.00;;;;;;5058870;28;20194;-60
2023/04/23 01:20:52;;;;;;;1.55;1.08;;;21.80;72.00;;;;;;5062298;28;20663;-60
2023/04/23 01:23:20;;;;;;;1.20;1.10;;;21.80;72.00;;;;;;5059242;28;20219;-59
2023/04/23 01:25:47;;;;;;;1.30;1.20;;;21.80;72.00;;;;;;5056687;28;20198;-60
2023/04/23 01:28:14;;;;;;;1.20;1.10;;;21.80;72.10;;;;;;5058232;28;20297;-59
2023/04/23 01:30:43;;;;;;;1.30;1.20;;;21.80;72.00;;;;;;5054493;28;20187;-58
2023/04/23 01:33:10;;;;;;;1.20;1.05;;;21.70;71.80;;;;;;5053552;28;20202;-59
2023/04/23 01:35:37;;;;;;;1.30;1.10;;;21.70;71.90;;;;;;5055338;28;20215;-58
2023/04/23 01:38:04;;;;;;;1.20;1.10;;;21.70;71.90;;;;;;5060816;28;20191;-57
2023/04/23 01:40:32;;;;;;;1.10;1.00;;;21.70;72.00;;;;;;5053212;28;20650;-59
2023/04/23 01:43:00;;;;;;;1.52;1.20;;;21.70;72.00;;;;;;5048458;28;20211;-59
2023/04/23 01:45:27;;;;;;;1.20;0.90;;;21.70;72.00;;;;;;5049789;28;20200;-59
2023/04/23 01:47:54;;;;;;;2.20;1.33;;;21.70;72.10;;;;;;5061351;28;20214;-59
2023/04/23 01:50:23;;;;;;;1.42;1.30;;;21.70;72.10;;;;;;5054850;28;20319;-59
2023/04/23 01:52:50;;;;;;;1.20;1.10;;;21.70;72.10;;;;;;5053149;28;20199;-58
2023/04/23 01:55:19;;;;;;;1.30;1.20;;;21.60;72.00;;;;;;5056342;28;20195;-59
2023/04/23 01:57:47;;;;;;;1.13;1.00;;;21.70;72.10;;;;;;5055142;28;20195;-58
2023/04/23 02:00:16;;;;;;;1.25;1.15;;;21.60;72.00;;;;;;5052541;28;20199;-58
2023/04/23 02:02:44;;;;;;;1.20;1.10;;;21.60;72.10;;;;;;5065600;28;20199;-56
2023/04/23 02:05:12;;;;;;;2.10;1.10;;;21.60;72.10;;;;;;5059908;28;20198;-58
2023/04/23 02:07:39;;;;;;;1.38;1.17;;;21.60;72.10;;;;;;5059105;28;20601;-58
2023/04/23 02:10:07;;;;;;;1.20;1.00;;;21.60;72.10;;;;;;5054881;28;20747;-57
2023/04/23 02:12:35;;;;;;;1.30;1.05;;;21.60;72.10;;;;;;5046038;28;20230;-58
2023/04/23 02:15:05;;;;;;;1.20;1.02;;;21.60;72.10;;;;;;5050108;28;20202;-58
2023/04/23 02:17:32;;;;;;;1.20;1.00;;;21.60;72.10;;;;;;5053323;28;20237;-59
2023/04/23 02:19:58;;;;;;;1.42;1.33;;;21.60;72.20;;;;;;5063630;28;20203;-56
2023/04/23 02:22:25;;;;;;;1.30;1.20;;;21.50;72.10;;;;;;5046986;28;20213;-58
2023/04/23 02:24:52;;;;;;;1.30;1.20;;;21.60;72.20;;;;;;5053859;28;20200;-58
2023/04/23 02:27:19;;;;;;;1.45;1.15;;;21.50;72.10;;;;;;5057059;28;20271;-57
2023/04/23 02:29:46;;;;;;;1.20;0.90;;;21.50;72.10;;;;;;5051280;28;20216;-58
2023/04/23 02:32:14;;;;;;;1.27;1.17;;;21.50;72.10;;;;;;5058787;28;20655;-56
2023/04/23 02:34:41;;;;;;;1.33;1.20;;;21.50;72.10;;;;;;5056368;28;20237;-58
2023/04/23 02:37:07;;;;;;;1.70;1.60;;;21.50;72.10;;;;;;5059178;28;20552;-58
2023/04/23 02:39:34;;;;;;;1.35;1.10;;;21.50;72.10;;;;;;5052298;28;20195;-58
2023/04/23 02:42:01;;;;;;;1.38;1.20;;;21.50;72.10;;;;;;5059255;28;20740;-56
2023/04/23 02:44:27;;;;;;;1.20;1.10;;;21.50;72.10;;;;;;5058238;28;20740;-58
2023/04/23 02:46:55;;;;;;;1.10;1.00;;;21.50;72.10;;;;;;5056815;28;20712;-61
2023/04/23 02:49:23;;;;;;;1.13;1.00;;;21.40;72.00;;;;;;5053291;28;20229;-57
2023/04/23 02:51:49;;;;;;;1.40;1.30;;;21.50;72.10;;;;;;5056276;28;20199;-59
2023/04/23 02:54:16;;;;;;;1.67;1.58;;;21.40;72.00;;;;;;5056900;28;20212;-58
2023/04/23 02:56:43;;;;;;;1.20;1.00;;;21.50;72.20;;;;;;5055561;28;20223;-58
2023/04/23 02:59:10;;;;;;;1.10;1.00;;;21.40;72.00;;;;;;5050910;28;20195;-59
2023/04/23 03:01:37;;;;;;;1.45;1.35;;;21.40;72.90;;;;;;5063769;28;20671;-59
2023/04/23 03:04:04;;;;;;;1.10;0.90;;;21.40;72.00;;;;;;5049854;28;20195;-59
2023/04/23 03:06:33;;;;;;;1.38;1.17;;;21.40;72.10;;;;;;5052094;28;20244;-60
2023/04/23 03:09:00;;;;;;;1.23;1.13;;;21.40;72.10;;;;;;5052826;28;20250;-61
2023/04/23 03:11:26;;;;;;;1.10;1.00;;;21.40;72.00;;;;;;5054657;28;20626;-59
2023/04/23 03:13:53;;;;;;;1.20;1.02;;;21.40;72.00;;;;;;5061224;28;20191;-57
2023/04/23 03:16:20;;;;;;;1.17;0.90;;;21.40;72.10;;;;;;5058440;28;20201;-61
2023/04/23 03:18:47;;;;;;;1.13;1.00;;;21.40;72.10;;;;;;5054545;28;20194;-57
2023/04/23 03:21:13;;;;;;;1.17;1.08;;;21.40;72.00;;;;;;5064336;28;20423;-59
2023/04/23 03:23:41;;;;;;;1.00;0.90;;;21.40;72.10;;;;;;5056845;28;20219;-61
2023/04/23 03:26:08;;;;;;;1.45;1.10;;;21.30;71.90;;;;;;5057386;28;20634;-62
2023/04/23 03:28:35;;;;;;;1.77;1.40;;;21.30;72.00;;;;;;5062438;28;20589;-59
2023/04/23 03:31:01;;;;;;;1.00;0.85;;;21.40;72.10;;;;;;5069258;28;20225;-57
2023/04/23 03:33:28;;;;;;;1.10;1.00;;;21.30;71.90;;;;;;5063541;28;20492;-59
2023/04/23 03:35:55;;;;;;;1.20;1.10;;;21.40;72.00;;;;;;5064717;28;20276;-58
2023/04/23 03:38:21;;;;;;;2.97;1.77;;;21.40;72.10;;;;;;5060878;28;20200;-59
2023/04/23 03:40:49;;;;;;;1.20;1.10;;;21.30;72.00;;;;;;5065336;28;20411;-61
2023/04/23 03:43:16;;;;;;;1.10;0.90;;;21.30;71.90;;;;;;5065739;28;20268;-59
2023/04/23 03:45:43;;;;;;;1.35;1.25;;;21.30;72.00;;;;;;5052103;28;20211;-57
2023/04/23 03:48:09;;;;;;;1.33;1.23;;;21.30;71.90;;;;;;5058636;28;20207;-59
2023/04/23 03:50:39;;;;;;;1.90;1.80;;;21.30;71.90;;;;;;5053571;28;20280;-61
2023/04/23 03:53:06;;;;;;;1.20;1.10;;;21.30;72.10;;;;;;5052339;28;20278;-59
2023/04/23 03:55:32;;;;;;;1.80;1.40;;;21.30;72.00;;;;;;5066363;28;20195;-60
2023/04/23 03:58:01;;;;;;;1.20;1.00;;;21.30;71.90;;;;;;5055159;28;20253;-58
2023/04/23 04:00:28;;;;;;;1.23;1.13;;;21.30;72.00;;;;;;5053352;28;20263;-60
2023/04/23 04:02:55;;;;;;;1.25;0.90;;;21.30;72.00;;;;;;5055488;28;20226;-60
2023/04/23 04:05:22;;;;;;;1.27;1.00;;;21.30;72.00;;;;;;5058056;28;20196;-58
2023/04/23 04:07:49;;;;;;;1.48;1.27;;;21.20;72.00;;;;;;5051816;28;20204;-61
2023/04/23 04:10:15;;;;;;;1.30;1.20;;;21.30;72.00;;;;;;5060434;28;20318;-60
2023/04/23 04:12:43;;;;;;;1.75;1.33;;;21.20;72.00;;;;;;5054959;28;20559;-60
2023/04/23 04:15:12;;;;;;;1.30;1.10;;;21.30;72.90;;;;;;5058049;28;20675;-59
2023/04/23 04:17:38;;;;;;;1.35;1.25;;;21.20;72.00;;;;;;5054385;28;20659;-61
2023/04/23 04:20:07;;;;;;;1.23;1.13;;;21.20;72.00;;;;;;5063534;28;20215;-59
2023/04/23 04:22:33;;;;;;;1.20;1.00;;;21.20;72.00;;;;;;5055243;28;20306;-59
2023/04/23 04:25:00;;;;;;;0.98;0.88;;;21.20;72.00;;;;;;5051187;28;20273;-60
2023/04/23 04:27:27;;;;;;;1.30;1.20;;;21.20;72.00;;;;;;5056160;28;20344;-58
2023/04/23 04:29:53;;;;;;;1.13;1.02;;;21.20;72.00;;;;;;5049288;28;20277;-59
2023/04/23 04:32:22;;;;;;;1.10;1.00;;;21.20;72.00;;;;;;5052996;28;20199;-58
2023/04/23 04:34:49;;;;;;;1.00;0.90;;;21.20;72.00;;;;;;5055854;28;20256;-60
2023/04/23 04:37:16;;;;;;;1.10;1.00;;;21.20;72.00;;;;;;5049903;28;20200;-61
2023/04/23 04:39:43;;;;;;;1.05;0.95;;;21.20;72.10;;;;;;5063104;28;20563;-61
2023/04/23 04:42:11;;;;;;;1.23;1.13;;;21.20;72.00;;;;;;5057547;28;20226;-55
2023/04/23 04:44:38;;;;;;;1.42;0.88;;;21.20;72.00;;;;;;5051910;28;20280;-61
2023/04/23 04:47:06;;;;;;;1.52;1.13;;;21.20;72.00;;;;;;5057948;28;20199;-58
2023/04/23 04:49:35;;;;;;;1.40;1.17;;;21.20;72.00;;;;;;5056448;28;20210;-60
2023/04/23 04:52:01;;;;;;;1.00;0.90;;;21.10;72.00;;;;;;5054892;28;20211;-57
2023/04/23 04:54:28;;;;;;;1.17;1.08;;;21.10;72.00;;;;;;5056877;28;20657;-60
2023/04/23 04:56:55;;;;;;;1.27;1.10;;;21.10;71.90;;;;;;5049722;28;20701;-65
2023/04/23 04:59:21;;;;;;;1.10;1.00;;;21.10;72.00;;;;;;5047910;28;20218;-58
2023/04/23 05:01:48;;;;;;;1.17;1.05;;;21.10;71.90;;;;;;5057673;28;20191;-58
2023/04/23 05:04:15;;;;;;;1.20;1.08;;;21.10;71.90;;;;;;5057748;28;20206;-60
2023/04/23 05:06:43;;;;;;;1.30;1.10;;;21.10;72.00;;;;;;5051114;28;20206;-60
2023/04/23 05:09:10;;;;;;;1.38;1.00;;;21.10;72.00;;;;;;5048751;28;20199;-61
2023/04/23 05:11:37;;;;;;;1.40;1.17;;;21.10;72.00;;;;;;5049925;28;20214;-61
2023/04/23 05:14:04;;;;;;;1.10;1.00;;;21.10;71.90;;;;;;5050877;28;20245;-60
2023/04/23 05:16:30;;;;;;;1.15;1.05;;;21.10;72.00;;;;;;5050975;28;20233;-58
2023/04/23 05:18:57;;;;;;;1.10;1.00;;;21.10;71.90;;;;;;5059750;28;20198;-59
2023/04/23 05:21:26;;;;;;;1.30;1.15;;;21.10;71.90;;;;;;5053653;28;20253;-61
2023/04/23 05:23:54;;;;;;;1.20;1.10;;;21.10;71.90;;;;;;5061077;28;20195;-58
2023/04/23 05:26:20;;;;;;;1.10;1.00;;;21.10;71.90;;;;;;5059928;28;20203;-58
2023/04/23 05:28:47;;;;;;;1.00;0.85;;;21.20;72.00;;;;;;5050552;28;20207;-60
2023/04/23 05:31:14;;;;;;;1.20;1.10;;;21.20;72.00;;;;;;5044061;28;20223;-57
2023/04/23 05:33:42;;;;;;;1.50;1.40;;;21.20;72.00;;;;;;5056832;28;20201;-60
2023/04/23 05:36:09;;;;;;;1.20;1.10;;;21.20;71.90;;;;;;5056354;28;20206;-58
2023/04/23 05:38:36;;;;;;;1.35;1.20;;;21.20;72.00;;;;;;5047852;28;20192;-59
2023/04/23 05:41:04;;;;;;;1.10;1.00;;;21.30;72.00;;;;;;5053645;28;20207;-59
2023/04/23 05:43:31;;;;;;;1.48;1.35;;;21.30;71.90;;;;;;5054943;28;20686;-57
2023/04/23 05:45:57;;;;;;;1.17;1.08;;;21.30;71.90;;;;;;5050802;28;20187;-60
2023/04/23 05:48:24;;;;;;;1.27;1.07;;;21.30;71.90;;;;;;5051192;28;20199;-58
2023/04/23 05:50:51;;;;;;;1.05;0.95;;;21.30;71.90;;;;;;5058379;28;20542;-60
2023/04/23 05:53:17;;;;;;;1.45;1.35;;;21.30;71.80;;;;;;5056775;28;20201;-58
2023/04/23 05:55:44;;;;;;;1.13;1.00;;;21.30;71.90;;;;;;5057211;28;20191;-59
2023/04/23 05:58:12;;;;;;;1.10;0.90;;;21.30;71.90;;;;;;5056092;28;20705;-58
2023/04/23 06:00:39;;;;;;;1.10;1.00;;;21.30;71.80;;;;;;5052492;28;20207;-61
2023/04/23 06:03:06;;;;;;;1.25;1.10;;;21.30;71.80;;;;;;5056813;28;20208;-58
2023/04/23 06:05:33;;;;;;;1.30;1.10;;;21.30;71.80;;;;;;5053446;28;20282;-58
2023/04/23 06:08:00;;;;;;;1.50;1.40;;;21.40;71.80;;;;;;5063544;28;20195;-60
2023/04/23 06:10:26;;;;;;;1.30;1.20;;;21.40;71.80;;;;;;5054240;28;20215;-59
2023/04/23 06:12:54;;;;;;;1.30;1.10;;;21.40;71.80;;;;;;5049149;28;20195;-60
2023/04/23 06:15:25;;;;;;;1.40;1.20;;;21.40;71.70;;;;;;5056133;28;20227;-55
2023/04/23 06:17:52;;;;;;;1.40;1.20;;;21.50;71.70;;;;;;5058702;28;20195;-62
2023/04/23 06:20:19;;;;;;;1.15;0.98;;;21.50;71.70;;;;;;5059202;28;20215;-58
2023/04/23 06:22:45;;;;;;;1.10;1.00;;;21.50;71.80;;;;;;5066084;28;20625;-59
2023/04/23 06:25:12;;;;;;;1.35;1.25;;;21.50;71.60;;;;;;5052019;28;20199;-57
2023/04/23 06:27:39;;;;;;;1.17;1.08;;;21.50;71.70;;;;;;5061001;28;20202;-59
2023/04/23 06:30:07;;;;;;;1.20;1.10;;;21.60;71.80;;;;;;5047891;28;20237;-60
2023/04/23 06:32:35;;;;;;;1.20;1.10;;;21.60;71.70;;;;;;5050715;28;20537;-58
2023/04/23 06:35:03;;;;;;;1.48;1.23;;;21.60;71.80;;;;;;5058774;28;21778;-57
2023/04/23 06:37:30;;;;;;;1.55;1.20;;;21.60;71.70;;;;;;5043072;28;20204;-58
2023/04/23 06:39:58;;;;;;;1.97;1.40;;;21.60;71.90;;;;;;5054907;28;20286;-56
2023/04/23 06:42:24;;;;;;;1.50;1.30;;;21.60;71.90;;;;;;5048882;28;20466;-58
2023/04/23 06:44:51;;;;;;;1.80;1.30;;;21.70;72.10;;;;;;5047784;28;20511;-57
2023/04/23 06:47:18;;;;;;;1.33;1.20;;;21.70;72.10;;;;;;5044501;28;20458;-60
2023/04/23 06:49:46;;;;;;;2.13;1.70;;;21.70;72.10;;;;;;5045409;28;20487;-61
2023/04/23 06:52:13;;;;;;;2.50;1.13;;;21.70;72.30;;;;;;5049444;28;20449;-65
2023/04/23 06:54:40;;;;;;;1.92;1.40;;;21.70;72.20;;;;;;5060171;28;20517;-65
2023/04/23 06:57:07;;;;;;;2.70;1.00;;;21.70;72.20;;;;;;5068566;28;20202;-65
2023/04/23 06:59:33;;;;;;;1.50;1.10;;;21.70;72.30;;;;;;5064465;28;20461;-65
2023/04/23 07:02:01;;;;;;;5.07;1.23;;;21.70;72.30;;;;;;5059961;28;20453;-65
2023/04/23 07:04:28;;;;;;;4.83;1.17;;;21.70;72.20;;;;;;5066375;28;20944;-57
2023/04/23 07:06:56;;;;;;;1.50;1.40;;;21.70;72.30;;;;;;5048230;28;20488;-63
2023/04/23 07:09:22;;;;;;;1.50;1.40;;;21.80;72.50;;;;;;5052875;28;20663;-65
2023/04/23 07:11:49;;;;;;;1.40;1.23;;;21.80;72.40;;;;;;5062201;28;20582;-65
2023/04/23 07:14:16;;;;;;;1.27;1.10;;;21.80;72.50;;;;;;5058428;28;20461;-64
2023/04/23 07:16:43;;;;;;;1.37;1.10;;;21.90;72.70;;;;;;5065757;28;20872;-65
2023/04/23 07:19:10;;;;;;;1.00;0.90;;;21.90;72.80;;;;;;5063793;28;20578;-62
2023/04/23 07:21:36;;;;;;;1.67;1.20;;;21.90;72.80;;;;;;5055150;28;20488;-61
2023/04/23 07:24:06;;;;;;;1.10;1.00;;;21.90;73.00;;;;;;5063232;28;20446;-61
2023/04/23 07:26:33;;;;;;;1.30;1.20;;;21.90;73.10;;;;;;5053277;28;20458;-61
2023/04/23 07:29:00;;;;;;;1.57;1.23;;;22.00;73.20;;;;;;5065784;28;20194;-61
2023/04/23 07:31:27;;;;;;;1.20;1.10;;;21.90;73.10;;;;;;5055809;28;20568;-61
2023/04/23 07:33:54;;;;;;;1.63;1.30;;;22.00;73.10;;;;;;5062011;28;20465;-61
2023/04/23 07:36:20;;;;;;;1.40;1.30;;;21.90;72.90;;;;;;5054983;28;20790;-61
2023/04/23 07:38:47;;;;;;;1.87;1.20;;;22.00;73.00;;;;;;5052282;28;20457;-61
2023/04/23 07:41:15;;;;;;;1.20;1.10;;;22.00;73.00;;;;;;5046228;28;20527;-61
2023/04/23 07:43:42;;;;;;;1.40;1.30;;;22.00;72.90;;;;;;5060604;28;20207;-61
2023/04/23 07:46:09;;;;;;;3.00;1.07;;;21.90;72.70;;;;;;5052558;28;20269;-61
2023/04/23 07:48:35;;;;;;;1.77;1.30;;;22.00;72.70;;;;;;5051242;28;20460;-61
2023/04/23 07:51:02;;;;;;;1.53;1.30;;;21.90;72.70;;;;;;5063433;28;20538;-62
2023/04/23 07:53:29;;;;;;;2.10;1.10;;;21.90;73.10;;;;;;5054991;28;20465;-61
2023/04/23 07:55:56;;;;;;;1.83;1.27;;;21.90;73.00;;;;;;5061121;28;20476;-61
2023/04/23 07:58:24;;;;;;;3.25;1.42;;;21.90;73.40;;;;;;5058886;28;20207;-61
2023/04/23 08:00:51;;;;;;;2.72;1.15;;;21.90;74.30;;;;;;5054168;28;20280;-63
2023/04/23 08:03:18;;;;;;;3.23;1.03;;;21.90;73.50;;;;;;5061470;28;20260;-62
2023/04/23 08:05:45;;;;;;;1.67;1.30;;;21.90;73.50;;;;;;5054194;28;20468;-61
2023/04/23 08:08:12;;;;;;;1.77;1.20;;;22.00;73.60;;;;;;5046299;28;20458;-62
2023/04/23 08:10:39;;;;;;;2.37;1.17;;;22.00;73.60;;;;;;5057113;28;21061;-61
2023/04/23 08:13:06;;;;;;;1.13;1.03;;;22.00;73.60;;;;;;5054931;28;20438;-61
2023/04/23 08:15:34;;;;;;;1.53;1.43;;;22.00;73.60;;;;;;5054694;28;20462;-62
2023/04/23 08:18:01;;;;;;;1.30;1.20;;;22.00;73.70;;;;;;5063126;28;20461;-62
2023/04/23 08:20:27;;;;;;;1.27;1.10;;;22.10;74.00;;;;;;5051535;28;20465;-62
2023/04/23 08:22:55;;;;;;;1.77;1.10;;;22.00;73.90;;;;;;5052391;28;21046;-61
2023/04/23 08:25:22;;;;;;;2.30;1.30;;;22.10;74.00;;;;;;5052631;28;21002;-62
2023/04/23 08:27:48;;;;;;;1.40;1.07;;;22.20;74.30;;;;;;5050471;28;20458;-61
2023/04/23 08:30:15;;;;;;;1.50;1.00;;;22.10;74.50;;;;;;5052712;28;20544;-60
2023/04/23 08:32:43;;;;;;;1.50;1.40;;;22.20;74.50;;;;;;5048636;28;20465;-61
2023/04/23 08:35:10;;;;;;;1.43;1.33;;;22.20;74.30;;;;;;5051868;28;20473;-59
2023/04/23 08:37:37;;;;;;;1.40;1.00;;;22.10;74.20;;;;;;5057849;28;20996;-60
2023/04/23 08:40:06;;;;;;;3.50;1.40;;;22.20;74.30;;;;;;5054454;28;20202;-63
2023/04/23 08:42:38;;;;;;;1.20;1.10;;;22.10;74.10;;;;;;5050283;28;20461;-60
2023/04/23 08:45:06;;;;;;;1.40;1.17;;;22.10;73.90;;;;;;5052503;28;20985;-62
2023/04/23 08:47:34;;;;;;;2.17;1.30;;;22.10;73.80;;;;;;5052473;28;20191;-61
2023/04/23 08:50:04;;;;;;;1.70;1.20;;;22.20;73.90;;;;;;5058621;28;20857;-63
2023/04/23 08:52:34;;;;;;;1.10;1.00;;;22.10;73.70;;;;;;5058757;28;20534;-60
2023/04/23 08:55:04;;;;;;;2.50;1.27;;;22.20;73.70;;;;;;5049666;28;20501;-63
2023/04/23 08:57:31;;;;;;;1.20;1.10;;;22.10;73.60;;;;;;5061978;28;20452;-63
2023/04/23 09:00:00;;;;;;;1.37;1.10;;;22.20;73.60;;;;;;5047819;28;20461;-63
2023/04/23 09:02:28;;;;;;;1.03;0.90;;;22.10;73.60;;;;;;5061535;28;20461;-63
2023/04/23 09:04:55;;;;;;;1.27;1.00;;;22.10;73.40;;;;;;5055930;28;20626;-61
2023/04/23 09:07:23;;;;;;;1.20;1.10;;;22.10;73.40;;;;;;5057154;28;20457;-63
2023/04/23 09:09:50;;;;;;;2.83;1.57;;;22.10;73.40;;;;;;5055912;28;20473;-64
2023/04/23 09:12:16;;;;;;;1.37;1.27;;;22.10;73.30;;;;;;5053431;28;20512;-62
2023/04/23 09:14:44;;;;;;;1.37;1.27;;;22.10;73.20;;;;;;5048702;28;20465;-62
2023/04/23 09:17:10;;;;;;;1.80;1.10;;;22.10;73.20;;;;;;5053097;28;20988;-63
2023/04/23 09:19:39;;;;;;;1.50;1.40;;;22.10;73.10;;;;;;5055360;28;20465;-61
2023/04/23 09:22:08;;;;;;;2.40;1.47;;;22.10;73.20;;;;;;5050275;28;20326;-60
2023/04/23 09:24:36;;;;;;;3.70;1.30;;;22.10;73.20;;;;;;5057271;28;20550;-61
2023/04/23 09:27:03;;;;;;;1.40;1.30;;;22.10;73.20;;;;;;5055193;28;20441;-61
2023/04/23 09:29:30;;;;;;;1.35;1.25;;;22.10;73.20;;;;;;5052732;28;20469;-63
2023/04/23 09:32:05;;;;;;;1.30;1.20;;;22.10;73.10;;;;;;5061812;28;20272;-63
2023/04/23 09:34:35;;;;;;;1.80;1.30;;;22.10;73.00;;;;;;5052199;28;20500;-61
2023/04/23 09:37:02;;;;;;;1.60;1.50;;;22.20;73.40;;;;;;5057954;28;20267;-62
2023/04/23 09:39:29;;;;;;;3.53;1.50;;;22.10;73.10;;;;;;5046688;28;20458;-62
2023/04/23 09:42:04;;;;;;;5.10;3.50;;;22.10;73.10;;;;;;5058919;28;20492;-62
2023/04/23 09:44:32;;;;;;;1.20;1.00;;;22.20;73.20;;;;;;5054064;28;20460;-59
2023/04/23 09:47:08;;;;;;;2.47;1.20;;;22.20;73.30;;;;;;5048633;28;20488;-62
2023/04/23 09:49:45;;;;;;;1.53;1.27;;;22.20;73.30;;;;;;5054675;28;20464;-62
2023/04/23 09:52:12;;;;;;;1.47;1.07;;;22.20;73.30;;;;;;5055292;28;20919;-62
2023/04/23 09:54:38;;;;;;;2.10;1.00;;;22.20;73.20;;;;;;5052192;28;20461;-61
2023/04/23 09:57:07;;;;;;;1.37;1.20;;;22.20;73.20;;;;;;5058480;28;20461;-62
2023/04/23 09:59:36;;;;;;;1.47;1.07;;;22.20;73.20;;;;;;5049096;28;20465;-62
2023/04/23 10:02:04;;;;;;;1.30;1.20;;;22.10;73.20;;;;;;5057958;28;20442;-62
2023/04/23 10:04:31;;;;;;;1.87;1.20;;;22.20;73.20;;;;;;5056322;28;20956;-62
2023/04/23 10:07:00;;;;;;;7.30;1.33;;;22.10;73.10;;;;;;5053297;28;21036;-55
2023/04/23 10:09:28;;;;;;;8.07;2.00;;;22.20;74.00;;;;;;5052291;28;20453;-59
2023/04/23 10:11:56;;;;;;;8.13;1.67;;;22.10;73.90;;;;;;5052298;28;20488;-54
2023/04/23 10:14:25;;;;;;;8.47;1.77;;;22.20;74.00;;;;;;5054919;28;20461;-57
2023/04/23 10:16:57;;;;;;;3.90;1.60;;;22.20;74.20;;;;;;5049506;28;20454;-62
2023/04/23 10:19:26;;;;;;;5.30;1.60;;;22.20;74.30;;;;;;5050257;28;20454;-63
2023/04/23 10:21:56;;;;;;;3.37;1.20;;;22.20;74.60;;;;;;5051971;28;20481;-64
2023/04/23 10:24:24;;;;;;;2.10;1.47;;;22.20;74.80;;;;;;5050564;28;20460;-63
2023/04/23 10:26:53;;;;;;;2.37;1.67;;;22.30;75.00;;;;;;5056201;28;20487;-57
2023/04/23 10:29:28;;;;;;;1.80;1.27;;;22.20;75.90;;;;;;5058071;28;20464;-59
2023/04/23 10:31:56;;;;;;;4.10;1.30;;;22.20;76.00;;;;;;5061716;28;21007;-58
2023/04/23 10:34:25;;;;;;;2.90;1.30;;;22.20;75.60;;;;;;5057350;28;20561;-64
2023/04/23 10:36:52;;;;;;;3.27;1.27;;;22.30;75.60;;;;;;5056296;28;20456;-57
2023/04/23 10:39:20;;;;;;;2.47;1.70;;;22.20;75.40;;;;;;5056346;28;20500;-53
2023/04/23 10:41:48;;;;;;;1.30;1.20;;;22.30;75.60;;;;;;5061473;28;20941;-55
2023/04/23 10:44:16;;;;;;;2.43;1.20;;;22.30;75.60;;;;;;5051172;28;20552;-63
2023/04/23 10:46:51;;;;;;;2.37;1.40;;;22.30;75.60;;;;;;5060405;28;20532;-59
2023/04/23 10:49:17;;;;;;;1.27;1.10;;;22.30;75.80;;;;;;5055546;28;20445;-53
2023/04/23 10:51:47;;;;;;;2.50;1.10;;;22.30;75.60;;;;;;5066014;28;20546;-59
2023/04/23 10:54:14;;;;;;;2.63;1.67;;;22.30;75.70;;;;;;5051448;28;20508;-60
2023/04/23 10:56:42;;;;;;;1.73;1.13;;;22.40;75.90;;;;;;5043218;28;20878;-63
2023/04/23 10:59:17;;;;;;;2.67;1.40;;;22.40;75.90;;;;;;5051689;28;20462;-59
2023/04/23 11:01:48;;;;;;;3.33;1.20;;;22.40;75.70;;;;;;5050553;28;20507;-60
2023/04/23 11:04:22;;;;;;;2.33;1.23;;;22.40;75.70;;;;;;5055555;28;20536;-60
2023/04/23 11:06:55;;;;;;;1.83;1.20;;;22.40;75.80;;;;;;5053734;28;20456;-63
2023/04/23 11:09:29;;;;;;;1.63;1.10;;;22.40;75.90;;;;;;5052954;28;20546;-64
2023/04/23 11:11:56;;;;;;;1.50;1.20;;;22.50;75.90;;;;;;5049092;28;21044;-57
2023/04/23 11:14:34;;;;;;;3.17;1.30;;;22.50;75.90;;;;;;5047844;28;20503;-54
2023/04/23 11:17:03;;;;;;;1.37;1.27;;;22.50;75.90;;;;;;5048683;28;20456;-60
2023/04/23 11:19:30;;;;;;;1.23;1.13;;;22.50;75.90;;;;;;5047022;28;20466;-58
2023/04/23 11:22:01;;;;;;;1.93;1.10;;;22.50;75.90;;;;;;5056883;28;20568;-56
2023/04/23 11:24:30;;;;;;;2.20;1.27;;;22.50;75.70;;;;;;5044432;28;20454;-58
2023/04/23 11:26:57;;;;;;;1.20;1.10;;;22.50;75.90;;;;;;5056538;28;20468;-60
2023/04/23 11:29:26;;;;;;;1.30;1.17;;;22.50;75.80;;;;;;5052112;28;20461;-59
2023/04/23 11:31:53;;;;;;;2.03;1.30;;;22.60;75.90;;;;;;5047411;28;20535;-60
2023/04/23 11:34:22;;;;;;;2.60;1.30;;;22.60;75.90;;;;;;5058269;28;20457;-52
2023/04/23 11:36:52;;;;;;;1.50;1.40;;;22.60;76.00;;;;;;5060024;28;20864;-57
2023/04/23 11:39:19;;;;;;;2.37;1.37;;;22.60;75.90;;;;;;5055273;28;20469;-54
2023/04/23 11:41:46;;;;;;;4.37;1.80;;;22.60;76.00;;;;;;5063798;28;20457;-51
2023/04/23 11:44:13;;;;;;;3.23;1.23;;;22.70;76.00;;;;;;5054776;28;20962;-54
2023/04/23 11:46:39;;;;;;;1.90;1.13;;;22.70;76.00;;;;;;5055826;28;20457;-56
2023/04/23 11:49:08;;;;;;;1.57;0.90;;;22.70;75.90;;;;;;5057799;28;20457;-60
2023/04/23 11:51:43;;;;;;;1.73;1.23;;;22.70;75.90;;;;;;5051148;28;20468;-62
2023/04/23 11:54:10;;;;;;;6.10;1.50;;;22.70;75.80;;;;;;5055210;28;20488;-61
2023/04/23 11:56:37;;;;;;;1.93;1.27;;;22.70;75.80;;;;;;5052615;28;20798;-62
2023/04/23 11:59:05;;;;;;;2.70;1.30;;;22.70;76.00;;;;;;5058632;28;20465;-66
2023/04/23 12:01:46;;;;;;;1.20;1.10;;;22.70;75.70;;;;;;5065883;28;20469;-67
2023/04/23 12:04:14;;;;;;;2.57;1.50;;;22.70;75.70;;;;;;5064300;28;20461;-53
2023/04/23 12:06:44;;;;;;;1.27;1.10;;;22.80;75.90;;;;;;5049714;28;20542;-60
2023/04/23 12:09:11;;;;;;;1.80;1.13;;;22.80;75.70;;;;;;5051782;28;20481;-61
2023/04/23 12:11:39;;;;;;;2.80;1.27;;;22.80;75.70;;;;;;5050120;28;20458;-55
2023/04/23 12:14:07;;;;;;;1.73;1.63;;;22.80;75.70;;;;;;5052336;28;20466;-60
2023/04/23 12:16:35;;;;;;;2.00;1.07;;;22.80;75.50;;;;;;5051993;28;20452;-63
2023/04/23 12:19:02;;;;;;;3.20;1.20;;;22.90;76.10;;;;;;5063927;28;20486;-65
2023/04/23 12:21:29;;;;;;;2.07;1.60;;;22.80;75.90;;;;;;5057993;28;20461;-63
2023/04/23 12:23:57;;;;;;;1.40;1.20;;;22.80;76.00;;;;;;5053678;28;20496;-54
2023/04/23 12:26:25;;;;;;;1.70;1.50;;;22.80;75.60;;;;;;5049622;28;20569;-63
2023/04/23 12:28:53;;;;;;;2.37;1.80;;;22.80;75.00;;;;;;5054635;28;20531;-61
2023/04/23 12:31:21;;;;;;;3.07;1.53;;;22.80;74.40;;;;;;5042009;28;20458;-53
2023/04/23 12:33:53;;;;;;;2.10;1.50;;;22.70;74.00;;;;;;5054788;28;21007;-62
2023/04/23 12:36:20;;;;;;;2.63;1.57;;;22.80;73.20;;;;;;5049824;28;20464;-56
2023/04/23 12:38:46;;;;;;;2.23;1.53;;;22.80;71.30;;;;;;5051740;28;20827;-62
2023/04/23 12:41:14;;;;;;;1.60;1.50;;;22.70;69.50;;;;;;5059894;28;20969;-65
2023/04/23 12:43:41;;;;;;;1.83;1.20;;;22.70;69.60;;;;;;5055517;28;20504;-65
2023/04/23 12:46:08;;;;;;;1.60;1.20;;;22.70;70.10;;;;;;5054453;28;20461;-58
2023/04/23 12:48:35;;;;;;;5.47;1.47;;;22.80;69.80;;;;;;5062696;28;20899;-59
2023/04/23 12:51:03;;;;;;;2.00;1.23;;;22.70;69.20;;;;;;5060585;28;20460;-62